Edgar Springs, Missouri
Current Conditions -  °F | °C
As of 12:58 PM on Wednesday 17 Dec 2014 (Local Time) from KTBN Reporting Station
Broken Clouds Broken Clouds  
Wind Chill: 35°   Ceiling: 18000
Heat Index: 35°   Visibility: 10mi
Dew Point: 24°   Wind: 3mph
Humidity: 62%   Direction: 320°NW
Pressure: 30.26"   Gusts: NA
Location:  37.7°N, 91.87°W
Report Text: KTBN 171858Z AUTO 32003KT 10SM FEW100 SCT160 BKN180 02/M05 A3026 RMK AO2 SLP261 T00191047
Loading
Personal Weather Stations






























Interactive Weather Map New forecast layout! Learn more

10-Day Weather Forecast

Advertisements
Track Severe Weather on mobile